Jaca, Aragón

latitud = 42° 34' 44''N | longitud = 000° 32' 49''W
823 metros sobre el nivel del mar | datos mensuales

Fecha, hora, temperatura, viento dirección y velocidad, humedad y presión.

  • 14-10-2018 19:00:00 | 11.20°C | Sur |4.00 km/h | 98.00% | 0.00 hPa
  • 14-10-2018 18:00:00 | 11.20°C | Nordeste |5.00 km/h | 98.00% | 0.00 hPa
  • 14-10-2018 17:00:00 | 12.10°C | Sudeste |9.00 km/h | 96.00% | 0.00 hPa
  • 14-10-2018 16:00:00 | 12.70°C | Este |10.00 km/h | 93.00% | 0.00 hPa
  • 14-10-2018 15:00:00 | 14.60°C | Sudoeste |12.00 km/h | 89.00% | 0.00 hPa
  • 14-10-2018 14:00:00 | 0.00°C | 0 |0.00 km/h | 0.00% | 0.00 hPa
  • 14-10-2018 13:00:00 | 15.20°C | Sur |13.00 km/h | 88.00% | 0.00 hPa
  • 14-10-2018 12:00:00 | 17.40°C | Sudeste |16.00 km/h | 70.00% | 0.00 hPa
  • 14-10-2018 11:00:00 | 17.40°C | Sudeste |16.00 km/h | 74.00% | 0.00 hPa
  • 14-10-2018 10:00:00 | 17.50°C | Sudeste |15.00 km/h | 74.00% | 0.00 hPa
  • 14-10-2018 09:00:00 | 16.30°C | Sudeste |12.00 km/h | 79.00% | 0.00 hPa
  • 14-10-2018 08:00:00 | 16.10°C | Sudeste |15.00 km/h | 78.00% | 0.00 hPa
  • 14-10-2018 07:00:00 | 16.50°C | Sudeste |14.00 km/h | 76.00% | 0.00 hPa
  • 14-10-2018 06:00:00 | 16.60°C | Sudeste |13.00 km/h | 73.00% | 0.00 hPa
  • 14-10-2018 05:00:00 | 17.00°C | Sudeste |14.00 km/h | 70.00% | 0.00 hPa
  • 14-10-2018 04:00:00 | 16.90°C | Sudeste |13.00 km/h | 68.00% | 0.00 hPa
  • 14-10-2018 03:00:00 | 17.10°C | Sudeste |14.00 km/h | 65.00% | 0.00 hPa
  • 14-10-2018 02:00:00 | 17.40°C | Sudeste |10.00 km/h | 65.00% | 0.00 hPa
  • 14-10-2018 01:00:00 | 17.90°C | Sudeste |10.00 km/h | 65.00% | 0.00 hPa
  • 14-10-2018 00:00:00 | 18.20°C | Sudeste |9.00 km/h | 67.00% | 0.00 hPa
  • 13-10-2018 23:00:00 | 18.30°C | Sudeste |10.00 km/h | 74.00% | 0.00 hPa
  • 13-10-2018 22:00:00 | 18.00°C | Sudeste |8.00 km/h | 72.00% | 0.00 hPa
  • 13-10-2018 21:00:00 | 18.20°C | Sudeste |5.00 km/h | 70.00% | 0.00 hPa
  • 13-10-2018 20:00:00 | 18.30°C | Sudeste |5.00 km/h | 65.00% | 0.00 hPa